createdAt,value
2019-03-11T00:00:47.735Z,3.80
2019-03-11T00:03:16.994Z,3.70
2019-03-11T00:05:46.336Z,3.70
2019-03-11T00:08:16.878Z,3.50
2019-03-11T00:10:46.617Z,3.40
2019-03-11T00:13:15.872Z,3.40
2019-03-11T00:15:45.635Z,3.30
2019-03-11T00:18:14.861Z,3.20
2019-03-11T00:20:45.090Z,3.00
2019-03-11T00:23:14.468Z,3.00
2019-03-11T00:25:43.929Z,2.80
2019-03-11T00:28:13.343Z,2.70
2019-03-11T00:30:42.786Z,2.60
2019-03-11T00:33:12.298Z,2.50
2019-03-11T00:35:42.916Z,2.40
2019-03-11T00:38:13.379Z,2.30
2019-03-11T00:40:42.843Z,2.10
2019-03-11T00:43:12.154Z,2.00
2019-03-11T00:45:41.492Z,1.90
2019-03-11T00:48:10.989Z,1.80
2019-03-11T00:50:40.547Z,1.70
2019-03-11T00:53:10.085Z,1.60
2019-03-11T00:55:39.488Z,1.50
2019-03-11T00:58:14.717Z,1.40
2019-03-11T01:00:45.476Z,1.40
2019-03-11T01:03:14.955Z,1.40
2019-03-11T01:05:45.429Z,1.30
2019-03-11T01:08:20.656Z,1.30
2019-03-11T01:10:50.039Z,1.30
2019-03-11T01:13:19.223Z,1.30
2019-03-11T01:15:48.660Z,1.20
2019-03-11T01:18:19.782Z,1.20
2019-03-11T01:20:55.925Z,1.20
2019-03-11T01:23:25.332Z,1.20
2019-03-11T01:25:54.490Z,1.20
2019-03-11T01:28:23.979Z,1.20
2019-03-11T01:30:53.455Z,1.10
2019-03-11T01:33:22.617Z,1.00
2019-03-11T01:35:52.082Z,1.00
2019-03-11T01:38:22.394Z,1.00
2019-03-11T01:40:51.872Z,1.00
2019-03-11T01:43:21.125Z,1.00
2019-03-11T01:45:50.472Z,1.00
2019-03-11T01:48:19.621Z,0.90
2019-03-11T01:50:49.102Z,0.90
2019-03-11T01:53:19.467Z,0.90
2019-03-11T01:55:48.905Z,1.00
2019-03-11T01:58:18.443Z,0.90
2019-03-11T02:00:47.907Z,0.90
2019-03-11T02:03:17.055Z,1.00
2019-03-11T02:05:46.681Z,0.90
2019-03-11T02:08:16.026Z,0.90
2019-03-11T02:10:47.563Z,0.90
2019-03-11T02:13:16.749Z,0.90
2019-03-11T02:15:46.438Z,0.90
2019-03-11T02:18:15.669Z,0.90
2019-03-11T02:20:49.078Z,0.90
2019-03-11T02:23:19.205Z,1.00
2019-03-11T02:25:49.536Z,1.00
2019-03-11T02:28:19.065Z,1.00
2019-03-11T02:30:48.542Z,1.00
2019-03-11T02:33:17.727Z,1.00
2019-03-11T02:35:53.028Z,1.00
2019-03-11T02:38:23.204Z,1.10
2019-03-11T02:40:52.719Z,1.00
2019-03-11T02:43:22.260Z,1.00
2019-03-11T02:45:51.703Z,1.00
2019-03-11T02:48:21.236Z,1.00
2019-03-11T02:50:51.577Z,0.90
2019-03-11T02:53:22.311Z,1.00
2019-03-11T02:55:51.796Z,1.00
2019-03-11T02:58:21.310Z,1.10
2019-03-11T03:00:52.441Z,1.20
2019-03-11T03:03:26.244Z,1.20
2019-03-11T03:06:03.053Z,1.10
2019-03-11T03:08:40.676Z,1.20
2019-03-11T03:11:10.146Z,1.10
2019-03-11T03:13:39.623Z,1.10
2019-03-11T03:16:08.790Z,1.20
2019-03-11T03:18:38.315Z,1.20
2019-03-11T03:21:07.730Z,1.20
2019-03-11T03:23:37.231Z,1.20
2019-03-11T03:26:06.452Z,1.20
2019-03-11T03:28:36.650Z,1.20
2019-03-11T03:31:07.899Z,1.20
2019-03-11T03:33:37.157Z,1.20
2019-03-11T03:36:06.388Z,1.30
2019-03-11T03:38:37.550Z,1.30
2019-03-11T03:41:07.861Z,1.30
2019-03-11T03:43:37.377Z,1.40
2019-03-11T03:46:18.040Z,1.40
2019-03-11T03:48:38.226Z,1.40
2019-03-11T03:51:08.776Z,1.40
2019-03-11T03:53:38.326Z,1.40
2019-03-11T03:56:07.902Z,1.50
2019-03-11T03:58:38.173Z,1.50
2019-03-11T04:01:07.586Z,1.50
2019-03-11T04:03:36.816Z,1.60
2019-03-11T04:06:06.230Z,1.60
2019-03-11T04:08:36.671Z,1.60
2019-03-11T04:11:06.053Z,1.60
2019-03-11T04:13:35.555Z,1.60
2019-03-11T04:16:07.220Z,1.70
2019-03-11T04:18:53.163Z,1.70
2019-03-11T04:21:24.616Z,1.70
2019-03-11T04:23:54.859Z,1.70
2019-03-11T04:26:28.289Z,1.60
2019-03-11T04:28:58.848Z,1.60
2019-03-11T04:31:29.088Z,1.60
2019-03-11T04:33:58.631Z,1.60
2019-03-11T04:36:28.117Z,1.60
2019-03-11T04:38:57.622Z,1.60
2019-03-11T04:41:26.829Z,1.60
2019-03-11T04:43:56.205Z,1.60
2019-03-11T04:46:25.366Z,1.50
2019-03-11T04:48:54.842Z,1.50
2019-03-11T04:51:24.375Z,1.50
2019-03-11T04:53:54.643Z,1.50
2019-03-11T04:56:23.843Z,1.50
2019-03-11T04:58:53.270Z,1.50
2019-03-11T05:01:22.748Z,1.50
2019-03-11T05:03:51.980Z,1.40
2019-03-11T05:06:21.346Z,1.40
2019-03-11T05:08:50.524Z,1.40
2019-03-11T05:11:22.034Z,1.40
2019-03-11T05:13:51.526Z,1.40
2019-03-11T05:16:21.010Z,1.40
2019-03-11T05:18:50.205Z,1.40
2019-03-11T05:21:19.602Z,1.40
2019-03-11T05:23:48.768Z,1.40
2019-03-11T05:26:18.267Z,1.40
2019-03-11T05:28:49.318Z,1.40
2019-03-11T05:31:19.344Z,1.40
2019-03-11T05:33:48.834Z,1.40
2019-03-11T05:36:18.336Z,1.40
2019-03-11T05:38:47.817Z,1.40
2019-03-11T05:41:18.965Z,1.40
2019-03-11T05:43:55.009Z,1.40
2019-03-11T05:46:24.551Z,1.50
2019-03-11T05:48:53.991Z,1.50
2019-03-11T05:51:31.089Z,1.60
2019-03-11T05:53:54.351Z,1.50
2019-03-11T05:56:23.754Z,1.50
2019-03-11T05:58:52.927Z,1.60
2019-03-11T06:01:22.419Z,1.60
2019-03-11T06:03:51.851Z,1.60
2019-03-11T06:06:21.460Z,1.60
2019-03-11T06:08:50.898Z,1.60
2019-03-11T06:11:20.369Z,1.60
2019-03-11T06:13:49.889Z,1.60
2019-03-11T06:16:19.478Z,1.70
2019-03-11T06:18:50.075Z,1.80
2019-03-11T06:21:36.565Z,1.80
2019-03-11T06:24:05.978Z,1.90
2019-03-11T06:26:35.421Z,2.00
2019-03-11T06:29:04.866Z,2.20
2019-03-11T06:31:34.178Z,2.20
2019-03-11T06:34:03.528Z,2.30
2019-03-11T06:36:32.800Z,2.40
2019-03-11T06:39:06.166Z,2.40
2019-03-11T06:41:33.271Z,2.40
2019-03-11T06:44:02.547Z,2.40
2019-03-11T06:46:31.877Z,2.40
2019-03-11T06:49:01.038Z,2.40
2019-03-11T06:51:30.515Z,2.30
2019-03-11T06:54:00.390Z,2.40
2019-03-11T06:56:29.552Z,2.40
2019-03-11T06:58:59.124Z,2.50
2019-03-11T07:01:28.508Z,2.60
2019-03-11T07:03:58.026Z,2.60
2019-03-11T07:06:27.817Z,2.70
2019-03-11T07:09:01.107Z,2.70
2019-03-11T07:11:30.643Z,2.80
2019-03-11T07:14:00.166Z,2.80
2019-03-11T07:16:29.615Z,2.80
2019-03-11T07:18:58.832Z,2.90
2019-03-11T07:21:28.319Z,3.00
2019-03-11T07:23:57.793Z,3.10
2019-03-11T07:26:27.237Z,3.00
2019-03-11T07:28:58.474Z,2.90
2019-03-11T07:31:36.566Z,2.90
2019-03-11T07:34:10.938Z,3.00
2019-03-11T07:36:40.100Z,3.00
2019-03-11T07:39:09.609Z,3.10
2019-03-11T07:41:39.951Z,3.20
2019-03-11T07:44:09.336Z,3.30
2019-03-11T07:46:39.658Z,3.40
2019-03-11T07:49:09.201Z,3.60
2019-03-11T07:51:38.666Z,3.40
2019-03-11T07:54:07.892Z,3.10
2019-03-11T07:56:37.301Z,3.10
2019-03-11T07:59:06.766Z,3.80
2019-03-11T08:01:35.922Z,4.50
2019-03-11T08:04:05.502Z,4.20
2019-03-11T08:06:34.869Z,3.90
2019-03-11T08:09:05.585Z,3.70
2019-03-11T08:11:35.164Z,3.60
2019-03-11T08:14:06.158Z,3.50
2019-03-11T08:16:35.392Z,3.30
2019-03-11T08:19:06.970Z,4.00
2019-03-11T08:21:47.739Z,4.70
2019-03-11T08:24:17.840Z,5.40
2019-03-11T08:26:48.139Z,6.10
2019-03-11T08:29:17.299Z,6.30
2019-03-11T08:31:46.830Z,6.70
2019-03-11T08:34:16.236Z,7.00
2019-03-11T08:36:45.588Z,6.60
2019-03-11T08:39:15.076Z,6.60
2019-03-11T08:41:44.344Z,6.20
2019-03-11T08:44:13.507Z,5.80
2019-03-11T08:46:44.652Z,5.80
2019-03-11T08:49:14.495Z,6.60
2019-03-11T08:51:43.662Z,7.80
2019-03-11T08:54:13.203Z,7.90
2019-03-11T08:56:42.608Z,8.40
2019-03-11T08:59:11.773Z,8.60
2019-03-11T09:01:41.246Z,8.10
2019-03-11T09:04:10.702Z,7.30
2019-03-11T09:06:39.909Z,6.80
2019-03-11T09:09:11.759Z,6.50
2019-03-11T09:11:40.914Z,6.10
2019-03-11T09:14:10.113Z,5.80
2019-03-11T09:16:39.520Z,5.60
2019-03-11T09:19:08.983Z,5.60
2019-03-11T09:21:38.730Z,5.30
2019-03-11T09:24:18.623Z,5.10
2019-03-11T09:26:40.384Z,5.20
2019-03-11T09:29:09.863Z,5.70
2019-03-11T09:31:40.224Z,5.90
2019-03-11T09:34:09.754Z,5.40
2019-03-11T09:36:39.264Z,5.20
2019-03-11T09:39:11.085Z,5.40
2019-03-11T09:41:40.231Z,5.60
2019-03-11T09:44:09.379Z,6.20
2019-03-11T09:46:38.563Z,6.20
2019-03-11T09:49:07.788Z,6.10
2019-03-11T09:51:36.939Z,5.70
2019-03-11T09:54:06.140Z,6.20
2019-03-11T09:56:42.960Z,6.70
2019-03-11T09:59:06.306Z,6.90
2019-03-11T10:01:35.525Z,6.60
2019-03-11T10:04:04.758Z,6.40
2019-03-11T10:06:33.996Z,6.10
2019-03-11T10:09:04.771Z,6.40
2019-03-11T10:11:33.954Z,6.80
2019-03-11T10:14:03.237Z,6.90
2019-03-11T10:16:32.498Z,6.30
2019-03-11T10:19:01.725Z,6.10
2019-03-11T10:21:31.111Z,5.70
2019-03-11T10:24:00.348Z,5.50
2019-03-11T10:26:29.713Z,5.20
2019-03-11T10:28:58.901Z,5.20
2019-03-11T10:31:28.346Z,5.40
2019-03-11T10:33:57.815Z,5.60
2019-03-11T10:36:26.969Z,5.60
2019-03-11T10:38:56.448Z,5.70
2019-03-11T10:41:25.935Z,5.70
2019-03-11T10:43:55.458Z,5.50
2019-03-11T10:46:25.049Z,5.70
2019-03-11T10:48:54.511Z,6.00
2019-03-11T10:51:23.938Z,5.70
2019-03-11T10:53:53.181Z,6.10
2019-03-11T10:56:22.413Z,6.80
2019-03-11T10:58:51.630Z,7.10
2019-03-11T11:01:21.183Z,6.70
2019-03-11T11:03:50.659Z,6.30
2019-03-11T11:06:20.151Z,6.30
2019-03-11T11:08:49.339Z,6.20
2019-03-11T11:11:18.862Z,6.10
2019-03-11T11:13:48.265Z,6.00
2019-03-11T11:16:17.794Z,5.90
2019-03-11T11:18:48.087Z,6.60
2019-03-11T11:21:17.255Z,7.10
2019-03-11T11:23:46.926Z,7.60
2019-03-11T11:26:16.204Z,7.50
2019-03-11T11:28:45.538Z,7.40
2019-03-11T11:31:14.911Z,7.40
2019-03-11T11:33:44.303Z,7.50
2019-03-11T11:36:13.872Z,7.10
2019-03-11T11:38:43.375Z,6.90
2019-03-11T11:41:12.882Z,6.70
2019-03-11T11:43:42.383Z,7.00
2019-03-11T11:46:11.876Z,7.30
2019-03-11T11:48:41.353Z,7.20
2019-03-11T11:51:11.665Z,7.10
2019-03-11T11:53:41.200Z,7.20
2019-03-11T11:56:10.662Z,6.90
2019-03-11T11:58:40.962Z,6.60
2019-03-11T12:01:11.370Z,6.30
2019-03-11T12:03:40.841Z,6.40
2019-03-11T12:06:11.217Z,6.70
2019-03-11T12:08:42.379Z,6.70
2019-03-11T12:11:14.352Z,6.90
2019-03-11T12:13:44.696Z,7.00
2019-03-11T12:16:20.726Z,7.20
2019-03-11T12:18:51.457Z,7.10
2019-03-11T12:21:20.883Z,7.00
2019-03-11T12:23:50.098Z,7.20
2019-03-11T12:26:22.037Z,7.00
2019-03-11T12:28:51.462Z,7.00
2019-03-11T12:31:21.694Z,7.10
2019-03-11T12:33:55.798Z,7.00
2019-03-11T12:36:30.372Z,7.20
2019-03-11T12:38:59.722Z,7.30
2019-03-11T12:41:29.013Z,7.20
2019-03-11T12:43:58.539Z,7.50
2019-03-11T12:46:28.633Z,7.60
2019-03-11T12:49:01.831Z,7.50
2019-03-11T12:51:31.106Z,7.30
2019-03-11T12:54:00.423Z,7.20
2019-03-11T12:56:29.992Z,7.00
2019-03-11T12:58:59.461Z,6.80
2019-03-11T13:01:28.643Z,6.50
2019-03-11T13:03:58.036Z,6.40
2019-03-11T13:06:27.311Z,6.60
2019-03-11T13:08:56.638Z,6.80
2019-03-11T13:11:26.223Z,6.80
2019-03-11T13:13:55.735Z,6.90
2019-03-11T13:16:25.205Z,6.90
2019-03-11T13:18:54.665Z,7.00
2019-03-11T13:21:26.242Z,6.90
2019-03-11T13:23:55.739Z,6.40
2019-03-11T13:26:24.914Z,6.40
2019-03-11T13:28:54.363Z,6.30
2019-03-11T13:31:23.928Z,6.50
2019-03-11T13:33:53.417Z,6.60
2019-03-11T13:36:22.896Z,6.80
2019-03-11T13:38:52.353Z,7.00
2019-03-11T13:41:21.587Z,7.00
2019-03-11T13:43:50.999Z,6.60
2019-03-11T13:46:20.537Z,6.80
2019-03-11T13:48:50.804Z,6.80
2019-03-11T13:51:20.311Z,6.60
2019-03-11T13:53:49.781Z,6.80
2019-03-11T13:56:19.076Z,6.90
2019-03-11T13:58:48.711Z,6.90
2019-03-11T14:01:17.890Z,6.60
2019-03-11T14:03:48.296Z,6.50
2019-03-11T14:06:17.774Z,6.60
2019-03-11T14:08:47.943Z,6.80
2019-03-11T14:11:17.175Z,7.00
2019-03-11T14:13:46.911Z,6.90
2019-03-11T14:16:16.969Z,6.90
2019-03-11T14:18:47.747Z,7.00
2019-03-11T14:21:25.396Z,6.60
2019-03-11T14:23:48.354Z,6.30
2019-03-11T14:26:17.506Z,6.20
2019-03-11T14:28:47.209Z,6.00
2019-03-11T14:31:18.530Z,5.80
2019-03-11T14:33:48.019Z,5.80
2019-03-11T14:36:18.397Z,5.80
2019-03-11T14:38:47.847Z,5.60
2019-03-11T14:41:17.010Z,5.60
2019-03-11T14:43:46.672Z,5.60
2019-03-11T14:46:15.984Z,5.70
2019-03-11T14:48:45.722Z,5.60
2019-03-11T14:51:15.065Z,5.60
2019-03-11T14:53:44.468Z,5.50
2019-03-11T14:56:13.627Z,5.40
2019-03-11T14:58:43.102Z,5.50
2019-03-11T15:01:12.577Z,5.50
2019-03-11T15:03:41.823Z,5.40
2019-03-11T15:06:11.213Z,5.40
2019-03-11T15:08:40.696Z,5.40
2019-03-11T15:11:11.090Z,5.40
2019-03-11T15:13:41.513Z,5.30
2019-03-11T15:16:10.843Z,5.30
2019-03-11T15:18:42.000Z,5.30
2019-03-11T15:21:11.587Z,5.30
2019-03-11T15:23:40.999Z,5.30
2019-03-11T15:26:11.394Z,5.30
2019-03-11T15:28:40.853Z,5.20
2019-03-11T15:31:11.169Z,5.30
2019-03-11T15:33:41.045Z,5.20
2019-03-11T15:36:10.925Z,5.20
2019-03-11T15:38:41.323Z,5.20
2019-03-11T15:41:10.479Z,5.10
2019-03-11T15:43:39.752Z,5.10
2019-03-11T15:46:11.075Z,5.10
2019-03-11T15:48:40.582Z,5.10
2019-03-11T15:51:10.096Z,5.10
2019-03-11T15:53:39.574Z,5.10
2019-03-11T15:56:09.139Z,5.10
2019-03-11T15:58:38.595Z,5.10
2019-03-11T16:01:07.817Z,5.00
2019-03-11T16:03:37.192Z,5.00
2019-03-11T16:06:06.375Z,5.00
2019-03-11T16:08:35.604Z,4.90
2019-03-11T16:11:05.170Z,4.90
2019-03-11T16:13:34.416Z,4.90
2019-03-11T16:16:03.947Z,4.90
2019-03-11T16:18:33.393Z,4.70
2019-03-11T16:21:02.922Z,4.50
2019-03-11T16:23:32.451Z,4.30
2019-03-11T16:26:01.910Z,4.20
2019-03-11T16:28:31.203Z,4.00
2019-03-11T16:31:01.395Z,4.00
2019-03-11T16:33:30.834Z,3.90
2019-03-11T16:36:00.013Z,3.70
2019-03-11T16:38:30.251Z,3.70
2019-03-11T16:40:59.416Z,3.70
2019-03-11T16:43:28.896Z,3.60
2019-03-11T16:45:58.365Z,3.60
2019-03-11T16:48:28.231Z,3.50
2019-03-11T16:50:57.539Z,3.60
2019-03-11T16:53:29.760Z,3.60
2019-03-11T16:56:06.330Z,3.50
2019-03-11T16:58:36.610Z,3.50
2019-03-11T17:01:07.690Z,3.50
2019-03-11T17:03:36.893Z,3.50
2019-03-11T17:06:08.757Z,3.50
2019-03-11T17:08:38.237Z,3.50
2019-03-11T17:11:07.446Z,3.50
2019-03-11T17:13:36.921Z,3.50
2019-03-11T17:16:06.364Z,3.60
2019-03-11T17:18:35.566Z,3.80
2019-03-11T17:21:04.811Z,3.70
2019-03-11T17:23:35.357Z,3.50
2019-03-11T17:26:04.864Z,3.40
2019-03-11T17:28:35.135Z,3.40
2019-03-11T17:31:04.654Z,3.40
2019-03-11T17:33:34.305Z,3.30
2019-03-11T17:36:03.688Z,3.30
2019-03-11T17:38:33.140Z,3.30
2019-03-11T17:41:02.340Z,3.30
2019-03-11T17:43:31.825Z,3.30
2019-03-11T17:46:01.049Z,3.30
2019-03-11T17:48:30.530Z,3.20
2019-03-11T17:50:59.885Z,3.30
2019-03-11T17:53:29.423Z,3.20
2019-03-11T17:55:58.889Z,3.20
2019-03-11T17:58:28.357Z,3.20
2019-03-11T18:00:57.921Z,3.20
2019-03-11T18:03:27.473Z,3.20
2019-03-11T18:05:57.263Z,3.20
2019-03-11T18:08:28.286Z,3.20
2019-03-11T18:10:57.718Z,3.20
2019-03-11T18:13:27.908Z,3.20
2019-03-11T18:15:58.115Z,3.20
2019-03-11T18:18:33.101Z,3.20
2019-03-11T18:20:59.734Z,3.20
2019-03-11T18:23:29.713Z,3.20
2019-03-11T18:26:00.271Z,3.20
2019-03-11T18:28:29.814Z,3.20
2019-03-11T18:30:59.672Z,3.20
2019-03-11T18:33:30.089Z,3.20
2019-03-11T18:35:59.597Z,3.10
2019-03-11T18:38:46.075Z,3.10
2019-03-11T18:41:18.661Z,3.10
2019-03-11T18:43:48.971Z,3.00
2019-03-11T18:46:18.233Z,3.00
2019-03-11T18:48:48.869Z,3.00
2019-03-11T18:51:18.271Z,2.90
2019-03-11T18:53:48.800Z,2.90
2019-03-11T18:56:20.983Z,2.90
2019-03-11T18:58:53.065Z,2.90
2019-03-11T19:01:22.483Z,2.80
2019-03-11T19:03:52.473Z,2.80
2019-03-11T19:06:22.314Z,2.70
2019-03-11T19:08:54.116Z,2.70
2019-03-11T19:11:23.349Z,2.70
2019-03-11T19:13:52.836Z,2.60
2019-03-11T19:16:23.307Z,2.60
2019-03-11T19:18:52.659Z,2.60
2019-03-11T19:21:21.886Z,2.60
2019-03-11T19:23:51.294Z,2.60
2019-03-11T19:26:21.011Z,2.60
2019-03-11T19:28:50.313Z,2.50
2019-03-11T19:31:19.979Z,2.50
2019-03-11T19:33:49.291Z,2.40
2019-03-11T19:36:18.792Z,2.40
2019-03-11T19:38:48.002Z,2.40
2019-03-11T19:41:17.501Z,2.40
2019-03-11T19:43:47.264Z,2.40
2019-03-11T19:46:17.022Z,2.40
2019-03-11T19:48:48.377Z,2.30
2019-03-11T19:51:17.978Z,2.30
2019-03-11T19:53:48.256Z,2.40
2019-03-11T19:56:17.742Z,2.40
2019-03-11T19:58:48.060Z,2.30
2019-03-11T20:01:18.451Z,2.30
2019-03-11T20:03:48.017Z,2.30
2019-03-11T20:06:21.783Z,2.20
2019-03-11T20:08:51.130Z,2.30
2019-03-11T20:11:27.015Z,2.20
2019-03-11T20:13:56.581Z,2.30
2019-03-11T20:16:26.250Z,2.20
2019-03-11T20:18:55.538Z,2.20
2019-03-11T20:21:25.110Z,2.20
2019-03-11T20:23:54.577Z,2.30
2019-03-11T20:26:24.118Z,2.30
2019-03-11T20:28:58.189Z,2.20
2019-03-11T20:31:28.447Z,2.20
2019-03-11T20:33:57.946Z,2.20
2019-03-11T20:36:27.454Z,2.20
2019-03-11T20:38:56.980Z,2.20
2019-03-11T20:41:26.425Z,2.20
2019-03-11T20:43:56.114Z,2.20
2019-03-11T20:46:26.691Z,2.20
2019-03-11T20:48:56.185Z,2.20
2019-03-11T20:51:25.750Z,2.20
2019-03-11T20:53:55.169Z,2.20
2019-03-11T20:56:39.213Z,2.10
2019-03-11T20:59:04.429Z,2.10
2019-03-11T21:01:34.894Z,2.10
2019-03-11T21:04:04.647Z,2.10
2019-03-11T21:06:34.224Z,2.00
2019-03-11T21:09:05.238Z,2.10
2019-03-11T21:11:34.467Z,2.00
2019-03-11T21:14:04.017Z,2.00
2019-03-11T21:16:37.587Z,2.00
2019-03-11T21:19:07.155Z,2.00
2019-03-11T21:21:43.707Z,2.00
2019-03-11T21:24:13.991Z,2.00
2019-03-11T21:26:43.757Z,1.90
2019-03-11T21:29:13.456Z,2.00
2019-03-11T21:31:42.829Z,2.00
2019-03-11T21:34:12.901Z,2.00
2019-03-11T21:36:43.585Z,2.00
2019-03-11T21:39:13.415Z,2.00
2019-03-11T21:41:48.159Z,2.00
2019-03-11T21:44:17.768Z,2.00
2019-03-11T21:46:47.726Z,2.10
2019-03-11T21:49:17.106Z,2.10
2019-03-11T21:51:46.750Z,2.10
2019-03-11T21:54:16.510Z,2.10
2019-03-11T21:56:46.343Z,2.20
2019-03-11T21:59:16.175Z,2.20
2019-03-11T22:01:45.954Z,2.20
2019-03-11T22:04:15.720Z,2.20
2019-03-11T22:06:45.410Z,2.20
2019-03-11T22:09:14.746Z,2.30
2019-03-11T22:11:43.906Z,2.40
2019-03-11T22:14:13.367Z,2.30
2019-03-11T22:16:42.983Z,2.30
2019-03-11T22:19:12.375Z,2.30
2019-03-11T22:21:42.273Z,2.30
2019-03-11T22:24:16.385Z,2.40
2019-03-11T22:26:45.942Z,2.40
2019-03-11T22:29:15.325Z,2.40
2019-03-11T22:31:45.102Z,2.40
2019-03-11T22:34:14.339Z,2.40
2019-03-11T22:36:43.831Z,2.30
2019-03-11T22:39:13.308Z,2.40
2019-03-11T22:41:43.625Z,2.40
2019-03-11T22:44:13.985Z,2.40
2019-03-11T22:46:43.461Z,2.40
2019-03-11T22:49:12.614Z,2.40
2019-03-11T22:51:42.127Z,2.40
2019-03-11T22:54:21.399Z,2.30
2019-03-11T22:56:50.653Z,2.20
2019-03-11T22:59:20.005Z,2.20
2019-03-11T23:01:52.144Z,2.20
2019-03-11T23:04:21.506Z,2.20
2019-03-11T23:06:51.047Z,2.20
2019-03-11T23:09:20.483Z,2.10
2019-03-11T23:11:49.687Z,2.10
2019-03-11T23:14:20.305Z,2.10
2019-03-11T23:16:56.382Z,2.10
2019-03-11T23:19:25.554Z,2.10
2019-03-11T23:21:55.115Z,2.10
2019-03-11T23:24:24.515Z,2.10
2019-03-11T23:26:54.059Z,2.10
2019-03-11T23:29:23.488Z,2.20
2019-03-11T23:31:53.038Z,2.20
2019-03-11T23:34:22.542Z,2.20
2019-03-11T23:36:52.019Z,2.20
2019-03-11T23:39:21.555Z,2.20
2019-03-11T23:41:51.013Z,2.30
2019-03-11T23:44:20.511Z,2.30
2019-03-11T23:46:49.793Z,2.30
2019-03-11T23:49:21.180Z,2.30
2019-03-11T23:51:51.507Z,2.30
2019-03-11T23:54:21.097Z,2.30
2019-03-11T23:56:50.510Z,2.30
2019-03-11T23:59:19.669Z,2.20
